Estació municipal de St. Julià de Vilatorta (Osona, E.N.Guilleries-Savassona)

Consulta les dades en temps real de l'estació municipal de St. Julià de Vilatorta





Hora UTC 15:55
Temperatura 35.7 ºC
Subsòl 10 cm 38.6 ºC
Humitat 26.7 %
Pressió 1019.8 hPa
Pluja 0.0 mm
Velocitat vent 16.3 km/h
Direcció vent SSW
Radiació solar 377.1 W/m²
Fuel 2.2 %

Webcam

Dades diàries 2026-09-06



Hora UTC (hivern +1h; estiu +2h)
Temperatura (ºC) Humitat (%) Pressió (hPa) Velocitat vent (km/h) Precipitació (mm) Fuel (%) Radiació solar (W/m²)
Hora UTC Aire Subsòl 10 cm Humitat Pressió Vel. Dir. Vel. Max Dir. Intent. màx 5 min. Fuel Rad. Sol.
00:05 20.0 15.4 67.6 1022.2 1.6 ESE 1.6 SE 0.0 5.7 0.3
00:10 19.7 15.3 68.5 1022.2 2.5 SE 5.9 ESE 0.0 5.7 0.7
00:15 19.4 15.2 69.5 1022.3 2.1 ESE 2.7 SE 0.0 5.7 0.8
00:20 19.2 15.1 70.3 1022.2 2.1 ESE 2.9 ESE 0.0 5.8 1.0
00:25 19.5 15.0 69.2 1022.2 2.5 ESE 3.9 E 0.0 5.8 1.3
00:30 19.6 15.0 68.9 1022.2 2.0 ESE 3.1 ESE 0.0 5.8 1.2
00:35 19.6 14.9 68.6 1022.1 1.8 SE 2.7 SE 0.0 5.8 1.2
00:40 19.6 14.9 68.7 1022.1 2.9 SE 5.8 SSE 0.0 5.9 0.7
00:45 19.4 14.9 69.8 1022.1 1.6 ESE 2.5 ESE 0.0 5.9 0.2
00:50 19.3 14.9 70.5 1022.1 2.2 ESE 3.2 E 0.0 5.9 0.9
00:55 19.4 14.8 70.1 1022.1 3.0 ESE 4.7 ESE 0.0 5.9 1.0
01:00 19.5 14.8 69.5 1022.0 2.0 ESE 3.6 ESE 0.0 6.0 0.9
01:05 19.5 14.8 69.0 1022.0 2.2 SE 4.2 ESE 0.0 6.0 1.1
01:10 19.6 14.8 68.7 1022.0 2.0 ESE 3.9 ESE 0.0 6.0 0.8
01:15 19.6 14.7 69.3 1022.0 1.5 SE 2.1 SE 0.0 6.0 0.7
01:20 19.4 14.7 69.9 1022.0 1.4 SE 2.4 ESE 0.0 6.0 0.6
01:25 19.4 14.7 70.0 1022.0 1.9 SE 2.8 SE 0.0 6.1 0.9
01:30 19.4 14.6 70.3 1022.0 1.6 SE 2.6 ESE 0.0 6.1 0.8
01:35 19.2 14.6 70.9 1021.9 1.7 ESE 2.5 SE 0.0 6.1 0.7
01:40 19.0 14.5 71.7 1021.9 1.3 SE 2.6 SSE 0.0 6.1 0.9
01:45 18.8 14.5 72.4 1021.9 2.5 SE 4.1 SE 0.0 6.2 0.7
01:50 18.6 14.5 73.4 1021.9 2.0 ESE 3.6 SE 0.0 6.2 0.5
01:55 18.4 14.5 74.6 1021.9 0.8 E 1.4 ESE 0.0 6.2 0.8
02:00 18.5 14.4 74.1 1021.9 1.2 E 3.1 SE 0.0 6.2 1.3
02:05 18.7 14.4 73.3 1021.9 2.6 SE 3.7 SE 0.0 6.3 1.2
02:10 18.7 14.4 73.2 1021.9 0.6 E 1.5 SE 0.0 6.3 0.2
02:15 18.5 14.4 74.1 1021.9 1.5 ESE 3.0 SE 0.0 6.3 0.8
02:20 18.4 14.3 74.3 1021.9 2.0 ESE 2.9 ESE 0.0 6.3 0.9
02:25 18.6 14.2 74.0 1021.9 2.1 SE 2.8 SE 0.0 6.4 1.0
02:30 18.6 14.2 73.9 1021.8 2.2 ESE 2.8 SE 0.0 6.4 0.8
02:35 18.5 14.1 74.0 1021.8 1.9 SE 2.7 SE 0.0 6.4 1.0
02:40 18.6 14.1 73.9 1021.8 2.3 ESE 3.4 SE 0.0 6.5 0.9
02:45 18.5 14.1 74.0 1021.8 2.1 SE 2.8 ESE 0.0 6.5 0.7
02:50 18.5 14.0 74.0 1021.8 2.0 SE 2.8 SE 0.0 6.5 0.4
02:55 18.5 14.0 74.0 1021.8 2.1 ESE 3.2 SE 0.0 6.5 0.7
03:00 18.5 13.9 73.9 1021.8 1.7 ESE 2.6 SE 0.0 6.6 1.0
03:05 18.3 13.9 74.4 1021.8 1.5 SE 2.3 SE 0.0 6.6 0.8
03:10 18.2 13.9 75.2 1021.8 1.1 ESE 1.6 ESE 0.0 6.6 0.5
03:15 18.1 13.9 75.3 1021.8 1.1 SE 2.4 ESE 0.0 6.6 0.3
03:20 18.0 13.8 76.0 1021.7 2.0 SE 2.6 SE 0.0 6.7 0.7
03:25 17.9 13.7 76.4 1021.7 1.2 ESE 2.2 SE 0.0 6.7 0.6
03:30 17.6 13.7 77.4 1021.7 1.3 ESE 1.9 SE 0.0 6.7 0.6
03:35 17.5 13.6 77.8 1021.7 0.9 SE 1.7 SE 0.0 6.7 0.8
03:40 17.5 13.5 78.2 1021.7 1.3 SE 2.0 SE 0.0 6.7 0.7
03:45 17.3 13.5 78.2 1021.7 2.3 SE 3.1 SE 0.0 6.8 0.8
03:50 17.1 13.4 79.3 1021.7 1.7 SE 2.6 SE 0.0 6.8 0.8
03:55 17.2 13.4 79.6 1021.6 1.9 SE 2.6 SE 0.0 6.9 1.1
04:00 17.2 13.3 79.4 1021.6 1.6 SE 2.3 SE 0.0 6.9 1.1
04:05 17.3 13.3 79.3 1021.6 1.7 SE 2.6 SE 0.0 6.9 0.8
04:10 17.2 13.2 79.5 1021.6 1.4 ESE 1.9 E 0.0 7.0 1.1
04:15 17.3 13.2 79.0 1021.5 1.8 SE 2.6 SE 0.0 7.0 0.9
04:20 17.3 13.1 79.0 1021.5 1.6 SE 2.1 SE 0.0 7.0 0.7
04:25 17.3 13.1 79.2 1021.5 1.3 SE 1.9 SE 0.0 7.1 0.6
04:30 17.3 13.0 79.4 1021.5 1.4 ESE 2.1 E 0.0 7.1 0.8
04:35 17.3 12.9 79.0 1021.5 2.1 SE 3.0 ESE 0.0 7.1 0.9
04:40 17.4 12.9 78.7 1021.5 1.9 SE 2.8 SE 0.0 7.2 0.6
04:45 17.3 12.9 78.6 1021.4 2.1 SE 3.1 SE 0.0 7.2 0.5
04:50 17.1 12.9 79.5 1021.4 2.0 ESE 2.8 ESE 0.0 7.2 0.5
04:55 17.1 12.9 79.4 1021.4 2.0 SE 2.7 SE 0.0 7.2 0.8
05:00 17.1 12.8 79.3 1021.4 2.7 ESE 3.6 ESE 0.0 7.3 1.0
05:05 17.1 12.8 79.6 1021.4 1.7 ESE 3.0 E 0.0 7.3 0.9
05:10 17.1 12.8 79.3 1021.4 2.0 SE 2.8 SE 0.0 7.3 1.2
05:15 17.3 12.7 78.5 1021.4 2.5 SE 3.1 SE 0.0 7.4 1.5
05:20 17.3 12.8 78.4 1021.4 2.2 SE 3.4 SE 0.0 7.4 2.6
05:25 17.1 12.8 79.3 1021.4 2.1 ESE 4.0 ESE 0.0 7.4 4.6
05:30 17.0 13.0 80.0 1021.4 1.6 ESE 3.2 ESE 0.0 7.4 7.5
05:35 17.0 13.2 79.7 1021.5 2.2 ESE 3.6 ESE 0.0 7.5 11.4
05:40 17.0 13.3 79.7 1021.5 1.3 SE 3.2 SE 0.0 7.5 15.6
05:45 17.1 13.3 79.6 1021.6 2.3 ESE 3.6 E 0.0 7.5 20.6
05:50 17.1 13.4 79.7 1021.6 2.0 ESE 3.0 SE 0.0 7.5 25.4
05:55 17.2 13.5 79.5 1021.6 2.3 ESE 3.6 ESE 0.0 7.6 31.0
06:00 17.3 13.7 79.0 1021.6 2.1 SE 2.9 ESE 0.0 7.6 36.0
06:05 17.4 14.0 79.0 1021.6 2.5 SE 3.2 SE 0.0 7.6 41.1
06:10 17.6 14.3 77.9 1021.6 2.2 SE 3.1 SE 0.0 7.6 45.9
06:15 17.7 14.6 77.8 1021.6 1.3 SSE 2.9 SE 0.0 7.6 50.8
06:20 17.8 14.9 78.0 1021.7 1.2 SE 1.9 SE 0.0 7.6 56.2
06:25 17.9 15.2 78.1 1021.7 1.1 SE 1.6 SE 0.0 7.7 61.3
06:30 18.2 15.4 77.0 1021.8 1.5 SE 2.6 SE 0.0 7.7 67.2
06:35 18.4 15.8 76.5 1021.8 1.9 SE 3.6 ESE 0.0 7.7 72.6
06:40 18.6 16.1 76.0 1021.8 1.2 SE 1.7 SE 0.0 7.7 89.5
06:45 18.8 16.5 75.3 1021.8 0.8 SSE 1.4 SSE 0.0 7.7 107.4
06:50 19.0 16.8 75.0 1021.8 0.5 SW 0.9 WNW 0.0 7.7 159.4
06:55 19.3 16.9 73.6 1021.8 1.2 W 2.1 W 0.0 7.7 180.8
07:00 19.6 17.2 72.9 1021.8 1.5 SW 2.9 SW 0.0 7.7 199.8
07:05 19.9 17.6 72.9 1021.8 2.0 WSW 4.5 WSW 0.0 7.7 224.6
07:10 20.3 18.0 70.8 1021.8 1.9 SW 3.1 SW 0.0 7.7 243.9
07:15 21.1 18.4 67.1 1021.8 1.9 SSW 3.3 SW 0.0 7.7 260.2
07:20 21.7 19.0 65.3 1021.8 1.3 SW 3.6 SSW 0.0 7.6 266.5
07:25 21.7 19.9 64.3 1021.8 2.5 WNW 5.4 NNW 0.0 7.6 271.5
07:30 21.4 20.8 67.0 1021.8 1.7 W 3.1 NW 0.0 7.6 286.0
07:35 21.8 21.5 66.0 1021.8 2.0 W 3.2 SW 0.0 7.6 307.1
07:40 22.3 22.0 63.8 1021.8 1.7 WSW 3.4 SW 0.0 7.6 311.6
07:45 22.6 22.4 62.6 1021.8 2.0 W 3.8 SSW 0.0 7.5 312.9
07:50 22.6 22.7 62.0 1021.8 1.6 WSW 3.2 W 0.0 7.5 326.4
07:55 22.8 23.1 60.5 1021.8 2.0 WSW 4.2 SSW 0.0 7.4 347.4
08:00 23.0 23.5 59.0 1021.8 2.9 W 4.9 W 0.0 7.4 377.3
08:05 22.6 24.0 60.5 1021.8 2.7 WNW 4.9 NW 0.0 7.3 403.7
08:10 22.7 24.5 60.2 1021.8 2.8 WNW 5.8 NW 0.0 7.3 429.1
08:15 22.9 25.0 60.0 1021.8 2.4 WNW 4.8 NNW 0.0 7.2 447.2
08:20 23.4 25.7 58.7 1021.7 1.8 W 4.2 WNW 0.0 7.2 458.1
08:25 24.6 26.4 55.1 1021.7 1.6 SW 4.6 WSW 0.0 7.2 473.0
08:30 25.2 27.2 53.6 1021.7 1.6 SW 3.8 WNW 0.0 7.1 486.5
08:35 25.7 28.0 52.6 1021.7 2.9 NW 5.6 NNW 0.0 7.1 495.0
08:40 25.1 28.7 54.7 1021.8 2.4 N 4.4 NW 0.0 7.0 515.1
08:45 25.5 29.5 54.2 1021.8 1.9 WNW 3.7 NW 0.0 7.0 524.1
08:50 26.0 30.0 52.3 1021.8 3.1 NNW 5.4 NNW 0.0 7.0 536.2
08:55 25.9 30.7 51.6 1021.8 3.2 N 5.1 N 0.0 6.9 555.3
09:00 26.1 31.2 51.1 1021.8 3.8 NNW 5.7 NNW 0.0 6.8 570.5
09:05 26.4 31.7 51.3 1021.8 2.9 NW 4.9 W 0.0 6.8 584.2
09:10 26.8 31.9 50.5 1021.8 3.4 W 5.6 WNW 0.0 6.8 565.1
09:15 26.9 31.8 49.9 1021.9 3.2 W 5.2 W 0.0 6.7 585.8
09:20 27.2 31.9 49.2 1021.8 2.9 WNW 5.6 NW 0.0 6.6 608.2
09:25 27.7 32.2 48.1 1021.8 2.6 NW 6.4 WNW 0.0 6.6 635.3
09:30 27.8 32.6 47.5 1021.8 2.6 NW 5.7 NW 0.0 6.5 633.7
09:35 28.0 33.0 46.9 1021.8 2.9 W 5.9 WSW 0.0 6.5 620.0
09:40 28.5 33.4 45.3 1021.7 3.0 NW 5.9 NNW 0.0 6.5 665.2
09:45 28.9 33.7 44.6 1021.7 3.1 W 5.4 WSW 0.0 6.4 675.1
09:50 29.2 34.3 43.9 1021.7 2.4 W 4.9 WNW 0.0 6.3 682.9
09:55 29.5 35.0 42.4 1021.7 2.7 W 5.5 WNW 0.0 6.3 693.0
10:00 29.9 36.0 41.1 1021.7 2.4 WSW 5.0 WNW 0.0 6.2 702.9
10:05 30.2 36.8 39.0 1021.7 1.4 NW 4.6 NNW 0.0 6.2 710.6
10:10 30.4 37.5 37.2 1021.6 2.7 NNE 4.9 NNE 0.0 6.1 720.3
10:15 30.8 38.2 36.3 1021.6 2.0 N 4.0 N 0.0 6.0 727.9
10:20 31.1 38.7 33.7 1021.5 2.4 N 5.4 N 0.0 6.0 734.7
10:25 31.4 39.6 33.4 1021.5 3.1 N 4.7 N 0.0 5.9 742.6
10:30 31.5 40.1 33.6 1021.5 2.2 NNE 5.3 N 0.0 5.8 749.1
10:35 32.2 41.4 33.1 1021.4 2.5 E 5.9 NNE 0.0 5.7 755.8
10:40 32.8 41.8 31.5 1021.4 2.5 WNW 5.0 W 0.0 5.7 763.5
10:45 32.8 42.2 31.4 1021.3 3.0 NNW 5.5 NW 0.0 4.9 769.7
10:50 32.9 42.5 30.9 1021.3 3.3 WNW 6.3 WNW 0.0 4.8 776.5
10:55 33.2 43.1 30.7 1021.2 2.2 NNE 6.7 NNW 0.0 4.6 785.7
11:00 33.7 44.7 29.3 1021.2 2.5 NE 5.2 NNE 0.0 4.5 787.8
11:05 33.9 44.9 28.5 1021.1 2.1 NW 5.7 W 0.0 4.4 747.0
11:10 34.7 45.3 26.1 1021.1 2.4 SSW 6.1 S 0.0 4.3 763.2
11:15 35.3 46.4 24.9 1021.0 3.5 S 9.1 SSW 0.0 4.2 782.2
11:20 35.4 47.1 22.0 1021.0 4.0 SSE 6.8 SSW 0.0 4.0 803.0
11:25 35.5 47.5 23.5 1020.9 5.1 NNW 13.4 N 0.0 3.9 810.0
11:30 35.4 46.6 24.3 1020.9 6.1 NW 14.6 WNW 0.0 3.8 811.0
11:35 35.7 45.8 23.3 1020.9 6.7 WNW 13.9 NW 0.0 3.7 812.0
11:40 36.0 45.9 22.1 1020.8 4.7 WSW 13.4 WNW 0.0 3.6 809.0
11:45 36.6 47.1 22.0 1020.7 4.2 SW 9.3 WNW 0.0 3.5 814.0
11:50 36.7 46.7 18.0 1020.8 8.0 W 21.4 W 0.0 3.4 820.0
11:55 36.6 46.6 16.8 1020.7 7.8 WNW 18.1 WSW 0.0 3.3 822.0
12:00 36.5 45.9 16.3 1020.7 9.8 WNW 21.5 WNW 0.0 3.1 824.0
12:05 36.5 45.7 16.3 1020.8 7.1 WNW 21.3 WNW 0.0 3.0 823.0
12:10 36.7 45.7 16.3 1020.7 10.2 WNW 21.7 NW 0.0 2.9 823.0
12:15 36.6 45.5 16.6 1020.7 10.7 WNW 22.6 W 0.0 2.8 822.0
12:20 36.9 45.9 16.4 1020.6 9.6 WNW 23.4 NW 0.0 2.8 818.0
12:25 36.7 45.4 16.2 1020.6 9.3 W 20.3 WNW 0.0 2.7 815.0
12:30 36.9 46.2 16.1 1020.6 10.0 W 20.7 W 0.0 2.6 812.0
12:35 36.8 45.6 16.3 1020.5 12.6 WNW 28.0 NW 0.0 2.6 806.0
12:40 36.6 44.9 16.6 1020.5 9.9 WNW 28.9 NW 0.0 2.5 799.2
12:45 37.4 46.0 16.5 1020.5 5.9 W 12.9 WNW 0.0 2.5 773.0
12:50 37.4 46.7 16.2 1020.4 8.3 W 18.0 NW 0.0 2.4 769.2
12:55 37.5 46.8 16.0 1020.4 9.8 W 23.7 WNW 0.0 2.4 776.1
13:00 36.8 45.8 16.1 1020.4 11.6 WNW 26.7 NW 0.0 2.3 788.8
13:05 37.0 45.7 16.4 1020.3 8.1 W 21.2 WNW 0.0 2.2 784.3
13:10 37.5 45.9 16.0 1020.3 9.1 W 23.7 W 0.0 2.2 775.8
13:15 37.1 45.5 16.0 1020.3 12.3 NW 21.1 WNW 0.0 2.2 765.1
13:20 37.2 45.5 16.3 1020.2 9.2 WNW 20.8 WNW 0.0 2.1 762.3
13:25 37.2 45.4 16.4 1020.2 9.3 WNW 23.5 W 0.0 2.1 750.9
13:30 37.2 45.0 16.1 1020.1 12.4 WSW 24.8 SSW 0.0 2.1 741.2
13:35 37.2 44.6 17.8 1020.0 11.0 WNW 25.0 WNW 0.0 2.0 726.1
13:40 37.6 45.3 18.6 1020.0 12.1 SSW 23.4 SSW 0.0 2.0 713.2
13:45 37.8 45.1 18.5 1020.0 8.5 SW 29.6 SSW 0.0 2.0 705.3
13:50 37.7 44.6 17.7 1020.0 16.2 SSW 31.6 SSW 0.0 2.0 703.1
13:55 37.4 44.1 18.9 1020.0 10.1 SSW 20.9 SSW 0.0 2.0 694.8
14:00 37.4 44.0 19.0 1020.0 14.2 SSW 23.5 SSW 0.0 2.0 690.4
14:05 37.4 43.6 19.8 1020.0 14.6 SSW 27.9 SSW 0.0 2.0 677.7
14:10 37.3 43.1 20.2 1019.9 16.4 SSW 30.0 SSW 0.0 2.0 672.2
14:15 37.0 42.5 22.2 1019.9 15.6 SSW 26.7 SW 0.0 1.8 658.6
14:20 37.3 42.6 21.5 1019.9 16.7 SSW 29.6 SSW 0.0 2.0 645.7
14:25 36.7 41.9 22.6 1019.9 16.0 SSW 26.9 SW 0.0 1.9 632.2
14:30 36.6 41.9 23.8 1019.9 12.6 SSW 25.2 SW 0.0 2.0 619.8
14:35 36.5 42.1 23.6 1019.9 14.4 SSW 25.1 SW 0.0 2.1 607.8
14:40 36.7 42.0 23.9 1019.9 16.1 SSW 27.6 SSW 0.0 2.1 597.4
14:45 36.5 41.7 24.4 1019.9 15.9 SSW 30.6 SSW 0.0 2.1 584.2
14:50 36.5 41.1 24.1 1020.0 16.1 SSW 30.6 SW 0.0 2.1 567.5
14:55 36.4 40.9 24.7 1020.0 13.8 SW 28.1 SSW 0.0 2.1 553.9
15:00 36.3 40.7 25.0 1019.9 13.9 SSW 26.2 SSW 0.0 2.1 539.7
15:05 36.3 40.3 24.5 1019.9 16.4 SSW 28.2 SSW 0.0 2.1 528.0
15:10 36.1 39.6 24.4 1019.9 13.5 SSW 28.5 SSW 0.0 2.1 516.4
15:15 36.3 38.5 24.5 1019.9 10.8 SSW 19.7 SSW 0.0 2.2 501.8
15:20 36.2 37.5 25.1 1019.8 15.1 SSW 28.1 SSW 0.0 2.2 485.8
15:25 35.8 37.3 26.3 1019.8 14.3 SSW 31.9 SW 0.0 2.1 470.0
15:30 36.0 38.3 26.3 1019.8 15.5 SSW 28.7 SW 0.0 2.2 454.7
15:35 35.8 38.5 26.5 1019.8 17.7 SSW 28.2 SSW 0.0 2.2 440.8
15:40 35.8 38.8 26.6 1019.8 13.1 SSW 23.7 SSW 0.0 2.2 423.9
15:45 35.7 38.8 26.5 1019.8 15.2 SSW 24.6 SW 0.0 2.2 408.0
15:50 35.6 38.5 26.5 1019.8 13.7 SSW 25.6 SSW 0.0 2.2 392.4
15:55 35.7 38.6 26.7 1019.8 16.3 SSW 30.7 SW 0.0 2.2 377.1
Màxima 37.8 47.5 80.0 1022.3 17.7 SSW 31.9 SW 0.0 7.7 824.0
Mínima 17.0 12.7 16.0 1019.8 1.8
Total 0.0